Terminal Aerodrome Forecast
Issued by NWS

Home | Current Version | Previous Version | Text Only | Print | Product List | Glossary On
Versions: 1 2 3 4 5 6 7 8 9 10 11 12 13 14 15 16 17 18 19 20 21 22 23 24 25
000
FTUS41 KBUF 221100
TAFIAG
TAF
KIAG 221129Z 2212/2312 03003KT 2SM BR OVC003
     FM221300 VRB04KT P6SM SCT003 BKN050
     FM221600 VRB03KT P6SM SCT050 SCT250
     FM222300 04006KT P6SM SCT250
     FM230300 08004KT P6SM SCT040 SCT250
     FM230900 08004KT 5SM BR BKN012=

USA.gov is the U.S. government's official web portal to all federal, state and local government web resources and services.